sensor_id;sensor_type;location;lat;lon;timestamp;temperature;humidity
10662;DHT22;5379;51.034;7.006;2023-07-16T04:33:02;24.40;96.40
10662;DHT22;5379;51.034;7.006;2023-07-16T04:35:30;24.10;96.90
10662;DHT22;5379;51.034;7.006;2023-07-16T04:37:57;24.20;97.10
10662;DHT22;5379;51.034;7.006;2023-07-16T04:40:23;24.10;96.90
10662;DHT22;5379;51.034;7.006;2023-07-16T04:42:50;24.10;97.10
10662;DHT22;5379;51.034;7.006;2023-07-16T04:45:17;24.00;97.30
10662;DHT22;5379;51.034;7.006;2023-07-16T04:47:46;24.10;97.30
10662;DHT22;5379;51.034;7.006;2023-07-16T04:50:13;24.20;97.70
10662;DHT22;5379;51.034;7.006;2023-07-16T04:52:40;24.30;97.40
10662;DHT22;5379;51.034;7.006;2023-07-16T04:55:07;24.30;97.70
10662;DHT22;5379;51.034;7.006;2023-07-16T04:57:34;24.60;98.00
10662;DHT22;5379;51.034;7.006;2023-07-16T05:00:02;24.90;97.40
10662;DHT22;5379;51.034;7.006;2023-07-16T05:02:32;25.10;97.80
10662;DHT22;5379;51.034;7.006;2023-07-16T05:05:00;25.20;97.80
10662;DHT22;5379;51.034;7.006;2023-07-16T05:07:27;25.10;97.20
10662;DHT22;5379;51.034;7.006;2023-07-16T05:09:54;25.50;97.40
10662;DHT22;5379;51.034;7.006;2023-07-16T05:12:21;25.50;96.30
10662;DHT22;5379;51.034;7.006;2023-07-16T05:14:48;25.80;96.30
10662;DHT22;5379;51.034;7.006;2023-07-16T05:17:15;26.10;97.40
10662;DHT22;5379;51.034;7.006;2023-07-16T05:19:42;26.30;96.30
10662;DHT22;5379;51.034;7.006;2023-07-16T05:22:11;26.50;97.70
10662;DHT22;5379;51.034;7.006;2023-07-16T05:24:38;26.40;96.80
10662;DHT22;5379;51.034;7.006;2023-07-16T05:27:05;26.40;97.60
10662;DHT22;5379;51.034;7.006;2023-07-16T05:29:32;24.80;95.80
10662;DHT22;5379;51.034;7.006;2023-07-16T05:31:59;24.00;96.60
10662;DHT22;5379;51.034;7.006;2023-07-16T05:34:26;23.50;97.50
10662;DHT22;5379;51.034;7.006;2023-07-16T05:36:54;23.30;97.90
10662;DHT22;5379;51.034;7.006;2023-07-16T05:39:22;23.00;97.70
10662;DHT22;5379;51.034;7.006;2023-07-16T05:41:49;22.90;97.90
10662;DHT22;5379;51.034;7.006;2023-07-16T05:44:16;22.90;98.30
10662;DHT22;5379;51.034;7.006;2023-07-16T05:46:43;23.00;97.90
10662;DHT22;5379;51.034;7.006;2023-07-16T05:49:10;22.90;97.50
10662;DHT22;5379;51.034;7.006;2023-07-16T05:51:37;22.80;97.60
10662;DHT22;5379;51.034;7.006;2023-07-16T05:54:04;23.00;98.40
10662;DHT22;5379;51.034;7.006;2023-07-16T05:56:32;23.20;97.20
10662;DHT22;5379;51.034;7.006;2023-07-16T05:58:59;23.00;97.40
10662;DHT22;5379;51.034;7.006;2023-07-16T06:01:26;23.20;96.90
10662;DHT22;5379;51.034;7.006;2023-07-16T06:03:53;23.40;95.90
10662;DHT22;5379;51.034;7.006;2023-07-16T06:06:20;23.70;96.10
10662;DHT22;5379;51.034;7.006;2023-07-16T06:08:47;23.70;96.10
10662;DHT22;5379;51.034;7.006;2023-07-16T06:11:15;23.50;97.00
10662;DHT22;5379;51.034;7.006;2023-07-16T06:13:43;23.60;96.20
10662;DHT22;5379;51.034;7.006;2023-07-16T06:16:10;23.20;95.70
10662;DHT22;5379;51.034;7.006;2023-07-16T06:18:37;23.00;95.80
10662;DHT22;5379;51.034;7.006;2023-07-16T06:21:04;23.20;96.30
10662;DHT22;5379;51.034;7.006;2023-07-16T06:23:31;23.20;95.90
10662;DHT22;5379;51.034;7.006;2023-07-16T06:25:58;23.10;95.90
10662;DHT22;5379;51.034;7.006;2023-07-16T06:28:24;23.00;95.70
10662;DHT22;5379;51.034;7.006;2023-07-16T06:30:53;23.80;96.80
10662;DHT22;5379;51.034;7.006;2023-07-16T06:33:20;24.30;97.40
10662;DHT22;5379;51.034;7.006;2023-07-16T06:35:47;24.30;94.90
10662;DHT22;5379;51.034;7.006;2023-07-16T06:38:14;24.30;95.50
10662;DHT22;5379;51.034;7.006;2023-07-16T06:40:46;23.50;95.20
10662;DHT22;5379;51.034;7.006;2023-07-16T06:43:14;23.50;95.40
10662;DHT22;5379;51.034;7.006;2023-07-16T06:45:41;23.90;96.00
10662;DHT22;5379;51.034;7.006;2023-07-16T06:48:09;23.90;94.60
10662;DHT22;5379;51.034;7.006;2023-07-16T06:50:36;23.70;95.40
10662;DHT22;5379;51.034;7.006;2023-07-16T06:53:03;23.80;95.40
10662;DHT22;5379;51.034;7.006;2023-07-16T06:55:30;23.60;94.30
10662;DHT22;5379;51.034;7.006;2023-07-16T06:57:57;23.70;94.90
10662;DHT22;5379;51.034;7.006;2023-07-16T07:00:24;24.20;94.60
10662;DHT22;5379;51.034;7.006;2023-07-16T07:02:51;24.10;94.80
10662;DHT22;5379;51.034;7.006;2023-07-16T07:05:20;24.30;94.70
10662;DHT22;5379;51.034;7.006;2023-07-16T07:07:47;24.40;93.90
10662;DHT22;5379;51.034;7.006;2023-07-16T07:10:14;24.10;94.20
10662;DHT22;5379;51.034;7.006;2023-07-16T07:12:41;24.00;93.90
10662;DHT22;5379;51.034;7.006;2023-07-16T07:15:08;24.10;94.60
10662;DHT22;5379;51.034;7.006;2023-07-16T07:17:36;24.70;94.50
10662;DHT22;5379;51.034;7.006;2023-07-16T07:20:03;24.30;93.00
10662;DHT22;5379;51.034;7.006;2023-07-16T07:22:31;24.00;93.50
10662;DHT22;5379;51.034;7.006;2023-07-16T07:24:58;24.10;93.90
10662;DHT22;5379;51.034;7.006;2023-07-16T07:27:25;24.30;93.70
10662;DHT22;5379;51.034;7.006;2023-07-16T07:29:52;24.10;92.70
10662;DHT22;5379;51.034;7.006;2023-07-16T07:32:21;23.70;93.00
10662;DHT22;5379;51.034;7.006;2023-07-16T07:34:49;23.60;93.10
10662;DHT22;5379;51.034;7.006;2023-07-16T07:37:16;23.50;93.30
10662;DHT22;5379;51.034;7.006;2023-07-16T07:39:44;23.60;94.00
10662;DHT22;5379;51.034;7.006;2023-07-16T07:42:13;23.80;98.00
10662;DHT22;5379;51.034;7.006;2023-07-16T07:44:40;23.90;92.80
10662;DHT22;5379;51.034;7.006;2023-07-16T07:47:07;23.80;93.30
10662;DHT22;5379;51.034;7.006;2023-07-16T07:49:35;23.90;93.20
10662;DHT22;5379;51.034;7.006;2023-07-16T07:52:02;23.90;93.00
10662;DHT22;5379;51.034;7.006;2023-07-16T07:54:30;24.40;94.70
10662;DHT22;5379;51.034;7.006;2023-07-16T07:57:00;24.50;96.60
10662;DHT22;5379;51.034;7.006;2023-07-16T07:59:28;24.60;92.90
10662;DHT22;5379;51.034;7.006;2023-07-16T08:01:56;25.20;94.00
10662;DHT22;5379;51.034;7.006;2023-07-16T08:04:23;25.50;92.40
10662;DHT22;5379;51.034;7.006;2023-07-16T08:06:50;25.70;92.20
10662;DHT22;5379;51.034;7.006;2023-07-16T08:09:17;24.90;91.80
10662;DHT22;5379;51.034;7.006;2023-07-16T08:11:44;25.20;93.10
10662;DHT22;5379;51.034;7.006;2023-07-16T08:14:13;25.30;96.30
10662;DHT22;5379;51.034;7.006;2023-07-16T08:16:39;25.50;91.80
10662;DHT22;5379;51.034;7.006;2023-07-16T08:19:06;25.60;94.40
10662;DHT22;5379;51.034;7.006;2023-07-16T08:21:34;25.30;91.40
10662;DHT22;5379;51.034;7.006;2023-07-16T08:24:01;25.20;92.10
10662;DHT22;5379;51.034;7.006;2023-07-16T08:26:28;25.30;95.60
10662;DHT22;5379;51.034;7.006;2023-07-16T08:28:55;25.20;91.60
10662;DHT22;5379;51.034;7.006;2023-07-16T08:31:23;25.20;91.60
10662;DHT22;5379;51.034;7.006;2023-07-16T08:33:50;24.90;91.20
10662;DHT22;5379;51.034;7.006;2023-07-16T08:36:17;24.90;91.30
10662;DHT22;5379;51.034;7.006;2023-07-16T08:38:44;24.90;91.90
10662;DHT22;5379;51.034;7.006;2023-07-16T08:41:11;25.00;91.30
10662;DHT22;5379;51.034;7.006;2023-07-16T08:43:39;25.40;93.00
10662;DHT22;5379;51.034;7.006;2023-07-16T08:46:07;25.40;91.80
10662;DHT22;5379;51.034;7.006;2023-07-16T08:48:35;25.20;92.60
10662;DHT22;5379;51.034;7.006;2023-07-16T08:51:02;25.80;91.80
10662;DHT22;5379;51.034;7.006;2023-07-16T08:53:30;25.70;92.80
10662;DHT22;5379;51.034;7.006;2023-07-16T08:55:57;25.70;96.00
10662;DHT22;5379;51.034;7.006;2023-07-16T08:58:25;25.50;93.30
10662;DHT22;5379;51.034;7.006;2023-07-16T09:00:52;25.20;92.60
10662;DHT22;5379;51.034;7.006;2023-07-16T09:03:19;25.40;91.60
10662;DHT22;5379;51.034;7.006;2023-07-16T09:05:47;25.30;91.10
10662;DHT22;5379;51.034;7.006;2023-07-16T09:08:14;25.20;91.40
10662;DHT22;5379;51.034;7.006;2023-07-16T09:10:42;26.00;94.90
10662;DHT22;5379;51.034;7.006;2023-07-16T09:13:10;26.00;94.10
10662;DHT22;5379;51.034;7.006;2023-07-16T09:15:37;25.20;90.80
10662;DHT22;5379;51.034;7.006;2023-07-16T09:18:05;25.30;90.70
10662;DHT22;5379;51.034;7.006;2023-07-16T09:20:32;25.40;95.00
10662;DHT22;5379;51.034;7.006;2023-07-16T09:23:01;25.40;93.00
10662;DHT22;5379;51.034;7.006;2023-07-16T09:25:28;25.80;93.20
10662;DHT22;5379;51.034;7.006;2023-07-16T09:27:55;26.30;94.20
10662;DHT22;5379;51.034;7.006;2023-07-16T09:30:22;26.10;91.10
10662;DHT22;5379;51.034;7.006;2023-07-16T09:32:49;25.90;90.10
10662;DHT22;5379;51.034;7.006;2023-07-16T09:35:17;26.00;92.40
10662;DHT22;5379;51.034;7.006;2023-07-16T09:37:44;25.90;95.50
10662;DHT22;5379;51.034;7.006;2023-07-16T09:40:12;25.60;95.90
10662;DHT22;5379;51.034;7.006;2023-07-16T09:42:41;25.70;95.60
10662;DHT22;5379;51.034;7.006;2023-07-16T09:45:16;26.00;94.40
10662;DHT22;5379;51.034;7.006;2023-07-16T09:47:43;25.90;95.90
10662;DHT22;5379;51.034;7.006;2023-07-16T09:50:11;25.50;96.50
10662;DHT22;5379;51.034;7.006;2023-07-16T09:55:08;25.20;96.50
10662;DHT22;5379;51.034;7.006;2023-07-16T09:57:39;25.20;96.90
10662;DHT22;5379;51.034;7.006;2023-07-16T10:00:09;25.20;96.30
10662;DHT22;5379;51.034;7.006;2023-07-16T10:02:38;25.40;96.80
10662;DHT22;5379;51.034;7.006;2023-07-16T10:05:12;25.20;96.80
10662;DHT22;5379;51.034;7.006;2023-07-16T10:07:40;25.20;92.20
10662;DHT22;5379;51.034;7.006;2023-07-16T10:10:08;25.20;92.20
10662;DHT22;5379;51.034;7.006;2023-07-16T10:12:37;26.00;94.30
10662;DHT22;5379;51.034;7.006;2023-07-16T10:15:05;25.90;92.60
10662;DHT22;5379;51.034;7.006;2023-07-16T10:17:33;26.40;92.80
10662;DHT22;5379;51.034;7.006;2023-07-16T10:20:01;26.60;92.90
10662;DHT22;5379;51.034;7.006;2023-07-16T10:22:33;26.70;90.40
10662;DHT22;5379;51.034;7.006;2023-07-16T10:25:01;26.70;91.20
10662;DHT22;5379;51.034;7.006;2023-07-16T10:27:30;26.90;93.50
10662;DHT22;5379;51.034;7.006;2023-07-16T10:30:00;26.20;95.80
10662;DHT22;5379;51.034;7.006;2023-07-16T10:32:29;25.50;96.30
10662;DHT22;5379;51.034;7.006;2023-07-16T10:34:56;25.50;96.70
10662;DHT22;5379;51.034;7.006;2023-07-16T10:37:23;25.50;95.70
10662;DHT22;5379;51.034;7.006;2023-07-16T10:39:52;25.60;96.80
10662;DHT22;5379;51.034;7.006;2023-07-16T10:42:19;25.40;97.00
10662;DHT22;5379;51.034;7.006;2023-07-16T10:44:49;25.30;92.60
10662;DHT22;5379;51.034;7.006;2023-07-16T10:47:23;25.90;96.40
10662;DHT22;5379;51.034;7.006;2023-07-16T10:49:52;26.10;96.30
10662;DHT22;5379;51.034;7.006;2023-07-16T10:54:48;26.00;91.30
10662;DHT22;5379;51.034;7.006;2023-07-16T10:57:17;26.30;94.80
10662;DHT22;5379;51.034;7.006;2023-07-16T10:59:45;26.70;93.50
10662;DHT22;5379;51.034;7.006;2023-07-16T11:02:14;26.70;95.00
10662;DHT22;5379;51.034;7.006;2023-07-16T11:04:43;26.10;95.70
10662;DHT22;5379;51.034;7.006;2023-07-16T11:07:14;25.60;96.20
10662;DHT22;5379;51.034;7.006;2023-07-16T11:09:42;25.50;96.50
10662;DHT22;5379;51.034;7.006;2023-07-16T11:12:11;25.50;94.10
10662;DHT22;5379;51.034;7.006;2023-07-16T11:14:38;25.90;96.30
10662;DHT22;5379;51.034;7.006;2023-07-16T11:17:06;25.60;96.20
10662;DHT22;5379;51.034;7.006;2023-07-16T11:19:35;25.70;94.70
10662;DHT22;5379;51.034;7.006;2023-07-16T11:22:06;25.90;93.10
10662;DHT22;5379;51.034;7.006;2023-07-16T11:24:40;26.20;92.50
10662;DHT22;5379;51.034;7.006;2023-07-16T11:27:13;26.50;93.30
10662;DHT22;5379;51.034;7.006;2023-07-16T11:29:45;26.90;92.20
10662;DHT22;5379;51.034;7.006;2023-07-16T11:32:25;27.10;93.60
10662;DHT22;5379;51.034;7.006;2023-07-16T11:41:18;26.90;94.10
10662;DHT22;5379;51.034;7.006;2023-07-16T11:52:19;26.90;94.40
10662;DHT22;5379;51.034;7.006;2023-07-16T12:00:04;25.40;96.90
10662;DHT22;5379;51.034;7.006;2023-07-16T12:05:05;25.50;95.60
10662;DHT22;5379;51.034;7.006;2023-07-16T12:07:36;26.60;91.40
10662;DHT22;5379;51.034;7.006;2023-07-16T12:10:07;26.80;94.50
10662;DHT22;5379;51.034;7.006;2023-07-16T12:17:32;27.00;95.20
10662;DHT22;5379;51.034;7.006;2023-07-16T12:19:59;26.90;94.40
10662;DHT22;5379;51.034;7.006;2023-07-16T12:22:27;27.10;93.80
10662;DHT22;5379;51.034;7.006;2023-07-16T12:24:54;27.10;95.00
10662;DHT22;5379;51.034;7.006;2023-07-16T12:27:22;26.70;95.40
10662;DHT22;5379;51.034;7.006;2023-07-16T12:29:49;26.60;95.80
10662;DHT22;5379;51.034;7.006;2023-07-16T12:32:17;26.40;95.70
10662;DHT22;5379;51.034;7.006;2023-07-16T12:34:47;26.00;96.50
10662;DHT22;5379;51.034;7.006;2023-07-16T12:37:31;25.60;96.80
10662;DHT22;5379;51.034;7.006;2023-07-16T12:42:35;25.20;97.20
10662;DHT22;5379;51.034;7.006;2023-07-16T12:45:02;25.20;97.50
10662;DHT22;5379;51.034;7.006;2023-07-16T12:47:29;25.10;97.50
10662;DHT22;5379;51.034;7.006;2023-07-16T12:49:58;24.60;98.10
10662;DHT22;5379;51.034;7.006;2023-07-16T12:52:26;24.90;96.00
10662;DHT22;5379;51.034;7.006;2023-07-16T12:56:47;25.00;97.60
10662;DHT22;5379;51.034;7.006;2023-07-16T12:59:10;25.10;97.60
10662;DHT22;5379;51.034;7.006;2023-07-16T13:09:57;24.70;97.60
10662;DHT22;5379;51.034;7.006;2023-07-16T13:12:30;24.80;96.60
10662;DHT22;5379;51.034;7.006;2023-07-16T13:22:30;25.20;97.60
10662;DHT22;5379;51.034;7.006;2023-07-16T13:27:25;24.80;98.30
10662;DHT22;5379;51.034;7.006;2023-07-16T13:29:52;25.00;98.00
10662;DHT22;5379;51.034;7.006;2023-07-16T13:32:20;25.00;97.80
10662;DHT22;5379;51.034;7.006;2023-07-16T13:34:47;25.10;98.20
10662;DHT22;5379;51.034;7.006;2023-07-16T13:37:14;25.40;98.10
10662;DHT22;5379;51.034;7.006;2023-07-16T13:39:41;25.40;98.10
10662;DHT22;5379;51.034;7.006;2023-07-16T13:42:08;25.40;98.10
10662;DHT22;5379;51.034;7.006;2023-07-16T13:44:36;25.60;97.60
10662;DHT22;5379;51.034;7.006;2023-07-16T13:47:03;25.50;97.90
10662;DHT22;5379;51.034;7.006;2023-07-16T13:49:32;25.40;97.90
10662;DHT22;5379;51.034;7.006;2023-07-16T13:51:59;25.40;98.50
10662;DHT22;5379;51.034;7.006;2023-07-16T13:54:26;25.40;97.90
10662;DHT22;5379;51.034;7.006;2023-07-16T13:56:53;25.60;95.60
10662;DHT22;5379;51.034;7.006;2023-07-16T13:59:20;25.40;99.10
10662;DHT22;5379;51.034;7.006;2023-07-16T14:01:46;25.20;99.50
10662;DHT22;5379;51.034;7.006;2023-07-16T14:04:13;25.10;99.80
10662;DHT22;5379;51.034;7.006;2023-07-16T14:06:42;25.40;99.00
10662;DHT22;5379;51.034;7.006;2023-07-16T14:09:09;25.40;99.30
10662;DHT22;5379;51.034;7.006;2023-07-16T14:11:36;25.80;99.30
10662;DHT22;5379;51.034;7.006;2023-07-16T14:14:02;25.90;99.20
10662;DHT22;5379;51.034;7.006;2023-07-16T14:16:29;25.80;99.50
10662;DHT22;5379;51.034;7.006;2023-07-16T14:18:56;26.00;97.80
10662;DHT22;5379;51.034;7.006;2023-07-16T14:21:23;26.30;98.70
10662;DHT22;5379;51.034;7.006;2023-07-16T14:23:52;26.30;98.90
10662;DHT22;5379;51.034;7.006;2023-07-16T14:26:19;26.40;98.00
10662;DHT22;5379;51.034;7.006;2023-07-16T14:28:46;26.20;99.00
10662;DHT22;5379;51.034;7.006;2023-07-16T14:31:14;25.90;99.20
10662;DHT22;5379;51.034;7.006;2023-07-16T14:33:41;26.20;99.10
10662;DHT22;5379;51.034;7.006;2023-07-16T14:36:08;26.10;99.00
10662;DHT22;5379;51.034;7.006;2023-07-16T14:38:35;25.60;99.30
10662;DHT22;5379;51.034;7.006;2023-07-16T14:41:03;25.70;99.80
10662;DHT22;5379;51.034;7.006;2023-07-16T14:43:32;25.80;99.30
10662;DHT22;5379;51.034;7.006;2023-07-16T14:45:59;26.40;99.00
10662;DHT22;5379;51.034;7.006;2023-07-16T14:48:25;26.30;96.10
10662;DHT22;5379;51.034;7.006;2023-07-16T14:50:53;26.80;97.80
10662;DHT22;5379;51.034;7.006;2023-07-16T14:53:20;27.40;96.90
10662;DHT22;5379;51.034;7.006;2023-07-16T14:55:47;27.60;96.50
10662;DHT22;5379;51.034;7.006;2023-07-16T14:58:18;27.30;97.20
10662;DHT22;5379;51.034;7.006;2023-07-16T15:00:45;26.80;98.10
10662;DHT22;5379;51.034;7.006;2023-07-16T15:03:12;26.60;97.80
10662;DHT22;5379;51.034;7.006;2023-07-16T15:05:39;26.40;98.30
10662;DHT22;5379;51.034;7.006;2023-07-16T15:08:06;25.90;98.70
10662;DHT22;5379;51.034;7.006;2023-07-16T15:10:33;25.50;98.50
10662;DHT22;5379;51.034;7.006;2023-07-16T15:13:00;25.50;98.80
10662;DHT22;5379;51.034;7.006;2023-07-16T15:15:28;25.50;99.10
10662;DHT22;5379;51.034;7.006;2023-07-16T15:17:55;25.70;98.90
10662;DHT22;5379;51.034;7.006;2023-07-16T15:20:22;26.00;98.70
10662;DHT22;5379;51.034;7.006;2023-07-16T15:22:51;26.70;97.50
10662;DHT22;5379;51.034;7.006;2023-07-16T15:25:18;26.70;97.90
10662;DHT22;5379;51.034;7.006;2023-07-16T15:27:45;26.30;98.00
10662;DHT22;5379;51.034;7.006;2023-07-16T15:30:12;26.20;98.20
10662;DHT22;5379;51.034;7.006;2023-07-16T15:32:41;25.80;98.50
10662;DHT22;5379;51.034;7.006;2023-07-16T15:35:08;25.40;99.20
10662;DHT22;5379;51.034;7.006;2023-07-16T15:37:35;25.20;99.10
10662;DHT22;5379;51.034;7.006;2023-07-16T15:40:12;24.60;99.50
10662;DHT22;5379;51.034;7.006;2023-07-16T15:42:39;25.00;99.00
10662;DHT22;5379;51.034;7.006;2023-07-16T15:45:09;25.30;99.10
10662;DHT22;5379;51.034;7.006;2023-07-16T15:47:38;25.30;99.00
10662;DHT22;5379;51.034;7.006;2023-07-16T15:50:07;25.50;99.00
10662;DHT22;5379;51.034;7.006;2023-07-16T15:52:34;25.60;98.70
10662;DHT22;5379;51.034;7.006;2023-07-16T15:55:01;25.10;99.30
10662;DHT22;5379;51.034;7.006;2023-07-16T15:57:29;25.20;99.20
10662;DHT22;5379;51.034;7.006;2023-07-16T15:59:56;25.20;98.60
10662;DHT22;5379;51.034;7.006;2023-07-16T16:02:23;25.10;99.20
10662;DHT22;5379;51.034;7.006;2023-07-16T16:04:50;25.40;99.10
10662;DHT22;5379;51.034;7.006;2023-07-16T16:07:19;25.50;98.60
10662;DHT22;5379;51.034;7.006;2023-07-16T16:09:46;25.50;98.80
10662;DHT22;5379;51.034;7.006;2023-07-16T16:12:13;25.40;98.70
10662;DHT22;5379;51.034;7.006;2023-07-16T16:14:39;25.20;99.40
10662;DHT22;5379;51.034;7.006;2023-07-16T16:17:07;24.60;99.30
10662;DHT22;5379;51.034;7.006;2023-07-16T16:19:34;24.60;99.60
10662;DHT22;5379;51.034;7.006;2023-07-16T16:22:01;24.80;99.60
10662;DHT22;5379;51.034;7.006;2023-07-16T16:24:29;25.20;99.10
10662;DHT22;5379;51.034;7.006;2023-07-16T16:26:56;25.10;99.30
10662;DHT22;5379;51.034;7.006;2023-07-16T16:29:23;25.40;97.80
10662;DHT22;5379;51.034;7.006;2023-07-16T16:31:50;25.40;98.40
10662;DHT22;5379;51.034;7.006;2023-07-16T16:34:17;25.30;98.90
10662;DHT22;5379;51.034;7.006;2023-07-16T16:36:45;24.90;99.10
10662;DHT22;5379;51.034;7.006;2023-07-16T16:39:12;24.90;99.40
10662;DHT22;5379;51.034;7.006;2023-07-16T16:41:40;25.20;99.30
10662;DHT22;5379;51.034;7.006;2023-07-16T16:44:08;25.10;99.10
10662;DHT22;5379;51.034;7.006;2023-07-16T16:46:35;25.00;99.20
10662;DHT22;5379;51.034;7.006;2023-07-16T16:49:03;25.40;98.90
10662;DHT22;5379;51.034;7.006;2023-07-16T16:51:30;25.10;99.10
10662;DHT22;5379;51.034;7.006;2023-07-16T16:53:57;25.50;98.40
10662;DHT22;5379;51.034;7.006;2023-07-16T16:56:24;25.60;98.80
10662;DHT22;5379;51.034;7.006;2023-07-16T16:58:52;26.00;98.50
10662;DHT22;5379;51.034;7.006;2023-07-16T17:01:19;26.50;98.30
10662;DHT22;5379;51.034;7.006;2023-07-16T17:03:46;27.10;97.50
10662;DHT22;5379;51.034;7.006;2023-07-16T17:06:13;27.50;94.90
10662;DHT22;5379;51.034;7.006;2023-07-16T17:08:40;27.50;94.80
10662;DHT22;5379;51.034;7.006;2023-07-16T17:11:07;27.80;96.70
10662;DHT22;5379;51.034;7.006;2023-07-16T17:13:34;28.00;96.00
10662;DHT22;5379;51.034;7.006;2023-07-16T17:16:03;27.80;96.20
10662;DHT22;5379;51.034;7.006;2023-07-16T17:18:30;27.40;96.80
10662;DHT22;5379;51.034;7.006;2023-07-16T17:20:58;27.10;96.80
10662;DHT22;5379;51.034;7.006;2023-07-16T17:23:25;27.00;97.10
10662;DHT22;5379;51.034;7.006;2023-07-16T17:25:52;27.10;97.40
10662;DHT22;5379;51.034;7.006;2023-07-16T17:28:18;27.30;96.90
10662;DHT22;5379;51.034;7.006;2023-07-16T17:30:45;26.80;97.30
10662;DHT22;5379;51.034;7.006;2023-07-16T17:33:14;26.40;97.90
10662;DHT22;5379;51.034;7.006;2023-07-16T17:35:41;26.30;98.00
10662;DHT22;5379;51.034;7.006;2023-07-16T17:38:08;26.20;98.20
10662;DHT22;5379;51.034;7.006;2023-07-16T17:40:35;26.40;97.70
10662;DHT22;5379;51.034;7.006;2023-07-16T17:43:02;26.40;97.90
10662;DHT22;5379;51.034;7.006;2023-07-16T17:45:29;26.70;97.80
10662;DHT22;5379;51.034;7.006;2023-07-16T17:47:56;26.80;97.50
10662;DHT22;5379;51.034;7.006;2023-07-16T17:52:52;26.30;97.70
10662;DHT22;5379;51.034;7.006;2023-07-16T17:55:19;26.30;98.00
10662;DHT22;5379;51.034;7.006;2023-07-16T17:57:46;26.70;97.60
10662;DHT22;5379;51.034;7.006;2023-07-16T18:00:13;26.60;95.50
10662;DHT22;5379;51.034;7.006;2023-07-16T18:02:40;27.20;97.20
10662;DHT22;5379;51.034;7.006;2023-07-16T18:05:08;27.40;97.00
10662;DHT22;5379;51.034;7.006;2023-07-16T18:07:36;27.30;96.20
10662;DHT22;5379;51.034;7.006;2023-07-16T18:10:03;27.40;94.70
10662;DHT22;5379;51.034;7.006;2023-07-16T18:12:30;27.60;96.60
10662;DHT22;5379;51.034;7.006;2023-07-16T18:14:57;27.80;94.90
10662;DHT22;5379;51.034;7.006;2023-07-16T18:17:25;27.70;96.50
10662;DHT22;5379;51.034;7.006;2023-07-16T18:19:52;27.60;93.10
10662;DHT22;5379;51.034;7.006;2023-07-16T18:22:20;27.70;95.00
10662;DHT22;5379;51.034;7.006;2023-07-16T18:24:49;27.70;96.20
10662;DHT22;5379;51.034;7.006;2023-07-16T18:27:17;28.00;96.20
10662;DHT22;5379;51.034;7.006;2023-07-16T18:29:44;27.80;96.30
10662;DHT22;5379;51.034;7.006;2023-07-16T18:32:11;27.20;96.70
10662;DHT22;5379;51.034;7.006;2023-07-16T18:34:39;27.20;95.20
10662;DHT22;5379;51.034;7.006;2023-07-16T18:37:06;27.60;95.20
10662;DHT22;5379;51.034;7.006;2023-07-16T18:39:33;28.10;95.90
10662;DHT22;5379;51.034;7.006;2023-07-16T18:42:02;27.80;94.30
10662;DHT22;5379;51.034;7.006;2023-07-16T18:44:29;28.10;93.70
10662;DHT22;5379;51.034;7.006;2023-07-16T18:46:55;28.00;95.20
10662;DHT22;5379;51.034;7.006;2023-07-16T18:49:22;28.00;94.90
10662;DHT22;5379;51.034;7.006;2023-07-16T18:51:50;28.20;95.80
10662;DHT22;5379;51.034;7.006;2023-07-16T18:54:17;28.30;92.60
10662;DHT22;5379;51.034;7.006;2023-07-16T18:56:44;28.60;94.90
10662;DHT22;5379;51.034;7.006;2023-07-16T18:59:12;28.60;91.50
10662;DHT22;5379;51.034;7.006;2023-07-16T19:01:39;28.50;93.20
10662;DHT22;5379;51.034;7.006;2023-07-16T19:04:06;28.60;94.30
10662;DHT22;5379;51.034;7.006;2023-07-16T19:06:33;28.50;92.70
10662;DHT22;5379;51.034;7.006;2023-07-16T19:09:00;28.50;92.20
10662;DHT22;5379;51.034;7.006;2023-07-16T19:11:27;28.60;93.30
10662;DHT22;5379;51.034;7.006;2023-07-16T19:13:54;28.80;93.90
10662;DHT22;5379;51.034;7.006;2023-07-16T19:16:24;28.80;93.20
10662;DHT22;5379;51.034;7.006;2023-07-16T19:18:51;28.50;87.80
10662;DHT22;5379;51.034;7.006;2023-07-16T19:21:18;28.50;93.00
10662;DHT22;5379;51.034;7.006;2023-07-16T19:23:45;28.70;88.70
10662;DHT22;5379;51.034;7.006;2023-07-16T19:26:11;28.90;93.10
10662;DHT22;5379;51.034;7.006;2023-07-16T19:28:38;29.00;92.90
10662;DHT22;5379;51.034;7.006;2023-07-16T19:31:06;28.80;92.00
10662;DHT22;5379;51.034;7.006;2023-07-16T19:33:34;28.60;94.80
10662;DHT22;5379;51.034;7.006;2023-07-16T19:38:29;28.10;94.90
10662;DHT22;5379;51.034;7.006;2023-07-16T19:40:56;28.30;93.40
10662;DHT22;5379;51.034;7.006;2023-07-16T19:43:23;28.10;89.50
10662;DHT22;5379;51.034;7.006;2023-07-16T19:45:59;28.10;89.00
10662;DHT22;5379;51.034;7.006;2023-07-16T19:48:26;28.10;90.80
10662;DHT22;5379;51.034;7.006;2023-07-16T19:50:55;28.40;92.00
10662;DHT22;5379;51.034;7.006;2023-07-16T19:53:22;28.40;88.70
10662;DHT22;5379;51.034;7.006;2023-07-16T19:55:49;28.20;86.60
10662;DHT22;5379;51.034;7.006;2023-07-16T19:58:16;28.30;90.20
10662;DHT22;5379;51.034;7.006;2023-07-16T20:03:10;28.40;87.40
10662;DHT22;5379;51.034;7.006;2023-07-16T20:05:38;28.50;88.30
10662;DHT22;5379;51.034;7.006;2023-07-16T20:08:07;28.50;88.30
10662;DHT22;5379;51.034;7.006;2023-07-16T20:10:35;28.60;90.90
10662;DHT22;5379;51.034;7.006;2023-07-16T20:13:02;28.70;90.70
10662;DHT22;5379;51.034;7.006;2023-07-16T20:15:30;28.50;91.70
10662;DHT22;5379;51.034;7.006;2023-07-16T20:17:57;28.40;93.60
10662;DHT22;5379;51.034;7.006;2023-07-16T20:20:24;28.50;93.30
10662;DHT22;5379;51.034;7.006;2023-07-16T20:22:51;28.30;87.50
10662;DHT22;5379;51.034;7.006;2023-07-16T20:25:20;28.10;87.70
10662;DHT22;5379;51.034;7.006;2023-07-16T20:27:53;28.20;91.10
10662;DHT22;5379;51.034;7.006;2023-07-16T20:30:21;28.10;88.70
10662;DHT22;5379;51.034;7.006;2023-07-16T20:32:48;28.60;91.60
10662;DHT22;5379;51.034;7.006;2023-07-16T20:35:15;28.70;93.60
10662;DHT22;5379;51.034;7.006;2023-07-16T20:37:42;28.10;93.70
10662;DHT22;5379;51.034;7.006;2023-07-16T20:40:10;28.10;92.50
10662;DHT22;5379;51.034;7.006;2023-07-16T20:42:40;28.10;94.80
10662;DHT22;5379;51.034;7.006;2023-07-16T20:45:14;27.90;94.40
10662;DHT22;5379;51.034;7.006;2023-07-16T20:47:42;27.90;95.40
10662;DHT22;5379;51.034;7.006;2023-07-16T20:50:09;27.60;93.90
10662;DHT22;5379;51.034;7.006;2023-07-16T20:52:38;27.40;93.20
10662;DHT22;5379;51.034;7.006;2023-07-16T20:55:07;27.60;95.10
10662;DHT22;5379;51.034;7.006;2023-07-16T20:57:34;27.70;91.50
10662;DHT22;5379;51.034;7.006;2023-07-16T21:00:03;27.80;91.20
10662;DHT22;5379;51.034;7.006;2023-07-16T21:02:34;28.00;90.20
10662;DHT22;5379;51.034;7.006;2023-07-16T21:05:02;28.10;90.90
10662;DHT22;5379;51.034;7.006;2023-07-16T21:07:29;28.50;94.10
10662;DHT22;5379;51.034;7.006;2023-07-16T21:09:56;28.30;93.70
10662;DHT22;5379;51.034;7.006;2023-07-16T21:12:23;28.40;95.00
10662;DHT22;5379;51.034;7.006;2023-07-16T21:14:50;28.10;95.60
10662;DHT22;5379;51.034;7.006;2023-07-16T21:17:18;28.10;94.70
10662;DHT22;5379;51.034;7.006;2023-07-16T21:19:45;28.10;95.40
10662;DHT22;5379;51.034;7.006;2023-07-16T21:22:12;28.30;93.20